Time;durP1;ratioP1;P1;durP2;ratioP2;P2;SDS_P1;SDS_P2;PMS_P1;PMS_P2;Temp;Humidity;BMP_temperature;BMP_pressure;BME280_temperature;BME280_humidity;BME280_pressure;Samples;Min_cycle;Max_cycle;Signal;HPM_P1;HPM_P2
2023/11/27 00:00:13;;;;;;;;;;;;;;;17.94;38.43;100111.13;4989810;28;1096;-51
2023/11/27 00:02:38;;;;;;;;;;;;;;;17.96;38.39;100116.31;4981886;28;1163;-51
2023/11/27 00:05:04;;;;;;;;;;;;;;;17.58;39.34;100125.34;4998659;28;1059;-51
2023/11/27 00:07:30;;;;;;;;;;;;;;;19.15;36.28;100137.94;4996133;28;1139;-52
2023/11/27 00:09:55;;;;;;;;;;;;;;;14.92;44.83;100129.97;4979265;28;1894;-51
2023/11/27 00:12:21;;;;;;;;;;;;;;;17.91;39.08;100124.69;4979308;28;1036;-52
2023/11/27 00:14:46;;;;;;;;;;;;;;;18.08;38.18;100127.69;4987471;28;848;-51
2023/11/27 00:17:12;;;;;;;;;;;;;;;17.47;39.49;100117.56;4998242;28;1037;-53
2023/11/27 00:19:38;;;;;;;;;;;;;;;18.24;38.23;100120.03;4990219;28;1208;-50
2023/11/27 00:22:03;;;;;;;;;;;;;;;17.65;39.22;100136.00;4980669;28;1049;-49
2023/11/27 00:24:29;;;;;;;;;;;;;;;17.51;39.67;100135.09;4990317;28;1059;-51
2023/11/27 00:26:54;;;;;;;;;;;;;;;18.46;37.53;100141.38;4978662;28;1074;-50
2023/11/27 00:29:20;;;;;;;;;;;;;;;17.56;39.15;100148.78;4986848;28;1048;-50
2023/11/27 00:31:45;;;;;;;;;;;;;;;18.57;37.46;100146.72;4982815;28;1989;-52
2023/11/27 00:34:11;;;;;;;;;;;;;;;17.99;38.36;100151.47;4986308;28;1196;-52
2023/11/27 00:36:36;;;;;;;;;;;;;;;17.42;39.62;100154.19;4985906;28;1012;-50
2023/11/27 00:39:02;;;;;;;;;;;;;;;18.54;37.31;100155.59;4997661;28;893;-50
2023/11/27 00:41:28;;;;;;;;;;;;;;;17.65;39.36;100148.94;4985380;28;1148;-52
2023/11/27 00:43:53;;;;;;;;;;;;;;;17.88;39.07;100149.97;4989793;28;1240;-50
2023/11/27 00:46:19;;;;;;;;;;;;;;;17.90;38.57;100156.00;4992540;28;1032;-52
2023/11/27 00:48:44;;;;;;;;;;;;;;;17.88;38.75;100160.97;4988279;28;1068;-52
2023/11/27 00:51:13;;;;;;;;;;;;;;;19.24;36.11;100160.06;4978158;28;2001;-54
2023/11/27 00:53:38;;;;;;;;;;;;;;;14.57;45.81;100167.22;4993491;28;1360;-48
2023/11/27 00:56:04;;;;;;;;;;;;;;;18.09;38.72;100173.34;4978687;28;1046;-50
2023/11/27 00:58:30;;;;;;;;;;;;;;;18.12;38.18;100170.00;4986493;28;1131;-51
2023/11/27 01:00:57;;;;;;;;;;;;;;;17.26;39.87;100167.28;4982521;28;1047;-53
2023/11/27 01:03:22;;;;;;;;;;;;;;;18.45;37.79;100169.19;4993324;28;1239;-48
2023/11/27 01:05:48;;;;;;;;;;;;;;;17.56;39.39;100160.59;4993078;28;1484;-53
2023/11/27 01:08:14;;;;;;;;;;;;;;;18.32;37.88;100170.78;5001196;28;1194;-51
2023/11/27 01:10:40;;;;;;;;;;;;;;;18.59;37.22;100164.56;4983032;28;1914;-50
2023/11/27 01:13:05;;;;;;;;;;;;;;;17.62;39.26;100177.84;4978654;28;1017;-48
2023/11/27 01:15:32;;;;;;;;;;;;;;;17.25;39.87;100188.47;4991159;28;1034;-55
2023/11/27 01:17:57;;;;;;;;;;;;;;;18.55;37.43;100185.56;4977816;28;1029;-54
2023/11/27 01:20:23;;;;;;;;;;;;;;;17.70;38.93;100185.44;4979189;28;1045;-54
2023/11/27 01:22:49;;;;;;;;;;;;;;;18.35;37.76;100181.19;4997294;28;1103;-53
2023/11/27 01:25:14;;;;;;;;;;;;;;;18.58;37.23;100186.88;4984174;28;1063;-54
2023/11/27 01:27:40;;;;;;;;;;;;;;;17.53;39.17;100182.34;4987556;28;1189;-52
2023/11/27 01:30:06;;;;;;;;;;;;;;;17.75;38.95;100179.88;4989190;28;1898;-54
2023/11/27 01:32:31;;;;;;;;;;;;;;;17.96;38.41;100182.34;4977968;28;1062;-54
2023/11/27 01:34:58;;;;;;;;;;;;;;;17.28;39.70;100192.56;4977917;28;977;-55
2023/11/27 01:37:23;;;;;;;;;;;;;;;18.75;36.86;100189.91;4977804;28;1112;-51
2023/11/27 01:39:49;;;;;;;;;;;;;;;17.71;38.79;100189.00;4977589;28;903;-54
2023/11/27 01:42:14;;;;;;;;;;;;;;;17.30;39.54;100198.56;4992613;28;1648;-54
2023/11/27 01:44:40;;;;;;;;;;;;;;;18.11;38.24;100192.31;4990692;28;1068;-52
2023/11/27 01:47:05;;;;;;;;;;;;;;;17.24;39.85;100197.00;4977939;28;1115;-52
2023/11/27 01:49:32;;;;;;;;;;;;;;;18.89;36.86;100212.00;5005365;28;1977;-54
2023/11/27 01:51:58;;;;;;;;;;;;;;;15.32;43.88;100207.63;4992447;28;942;-52
2023/11/27 01:54:23;;;;;;;;;;;;;;;17.58;39.69;100212.53;4977418;28;1065;-54
2023/11/27 01:56:49;;;;;;;;;;;;;;;18.36;37.50;100210.38;4985512;28;1065;-53
2023/11/27 01:59:16;;;;;;;;;;;;;;;17.39;39.67;100216.06;4982173;28;1280;-51
2023/11/27 02:01:42;;;;;;;;;;;;;;;18.38;37.67;100219.13;4988749;28;1148;-52
2023/11/27 02:04:08;;;;;;;;;;;;;;;17.88;38.58;100221.47;4996145;28;925;-52
2023/11/27 02:06:33;;;;;;;;;;;;;;;17.35;39.62;100223.25;4999383;28;1099;-53
2023/11/27 02:08:59;;;;;;;;;;;;;;;18.51;37.24;100227.75;4986233;28;1164;-53
2023/11/27 02:11:27;;;;;;;;;;;;;;;17.55;39.22;100241.41;5000959;28;1979;-51
2023/11/27 02:13:53;;;;;;;;;;;;;;;18.55;37.34;100235.13;4985632;28;1194;-55
2023/11/27 02:16:18;;;;;;;;;;;;;;;15.42;43.63;100236.06;4990428;28;931;-55
2023/11/27 02:18:44;;;;;;;;;;;;;;;17.47;40.01;100239.31;4984147;28;1152;-55
2023/11/27 02:21:09;;;;;;;;;;;;;;;18.89;36.89;100241.50;4990136;28;1227;-53
2023/11/27 02:23:35;;;;;;;;;;;;;;;17.55;39.48;100240.59;4983980;28;1096;-54
2023/11/27 02:26:00;;;;;;;;;;;;;;;17.14;40.21;100238.28;4996290;28;1153;-54
2023/11/27 02:28:26;;;;;;;;;;;;;;;17.81;39.01;100249.38;4995733;28;871;-54
2023/11/27 02:30:52;;;;;;;;;;;;;;;17.56;39.17;100250.50;4990083;28;1989;-52
2023/11/27 02:33:17;;;;;;;;;;;;;;;17.71;39.15;100255.81;4984913;28;1157;-52
2023/11/27 02:35:43;;;;;;;;;;;;;;;18.77;36.90;100253.75;4981278;28;1116;-54
2023/11/27 02:38:08;;;;;;;;;;;;;;;17.62;39.14;100271.31;4982791;28;1116;-50
2023/11/27 02:40:34;;;;;;;;;;;;;;;17.23;40.08;100275.84;4995429;28;871;-53
2023/11/27 02:43:00;;;;;;;;;;;;;;;18.24;37.96;100278.81;4995545;28;1100;-50
2023/11/27 02:45:25;;;;;;;;;;;;;;;17.44;39.40;100281.94;4988265;28;1139;-53
2023/11/27 02:47:51;;;;;;;;;;;;;;;18.60;37.38;100281.03;4999330;28;988;-54
2023/11/27 02:50:18;;;;;;;;;;;;;;;16.57;41.05;100282.69;4980630;28;1898;-50
2023/11/27 02:52:45;;;;;;;;;;;;;;;16.49;42.13;100286.06;4993465;28;894;-53
2023/11/27 02:55:10;;;;;;;;;;;;;;;18.59;37.34;100288.47;4995832;28;1276;-54
2023/11/27 02:57:36;;;;;;;;;;;;;;;17.70;39.02;100286.34;5008426;28;2043;-52
2023/11/27 03:00:02;;;;;;;;;;;;;;;17.33;39.83;100291.41;5002846;28;1140;-52
2023/11/27 03:02:27;;;;;;;;;;;;;;;18.37;37.66;100286.31;4985983;28;1183;-53
2023/11/27 03:04:53;;;;;;;;;;;;;;;17.47;39.35;100290.72;5002441;28;1104;-54
2023/11/27 03:07:18;;;;;;;;;;;;;;;18.40;37.69;100302.25;4986083;28;1195;-53
2023/11/27 03:09:47;;;;;;;;;;;;;;;17.85;38.43;100310.94;4987590;28;1939;-53
2023/11/27 03:12:12;;;;;;;;;;;;;;;17.88;38.66;100310.34;4998411;28;1119;-53
2023/11/27 03:14:38;;;;;;;;;;;;;;;18.91;36.50;100319.13;4997889;28;1088;-54
2023/11/27 03:17:04;;;;;;;;;;;;;;;17.72;38.73;100323.44;4999022;28;1027;-55
2023/11/27 03:19:30;;;;;;;;;;;;;;;17.97;38.39;100335.28;4991720;28;1195;-52
2023/11/27 03:21:55;;;;;;;;;;;;;;;18.01;38.01;100338.28;4980083;28;1022;-53
2023/11/27 03:24:20;;;;;;;;;;;;;;;17.64;39.18;100329.56;4980159;28;1040;-54
2023/11/27 03:26:46;;;;;;;;;;;;;;;19.15;36.19;100328.09;4994726;28;1178;-53
2023/11/27 03:29:13;;;;;;;;;;;;;;;14.80;45.44;100337.47;4980168;28;1049;-52
2023/11/27 03:31:38;;;;;;;;;;;;;;;18.38;37.72;100340.25;4992617;28;1910;-53
2023/11/27 03:34:04;;;;;;;;;;;;;;;18.14;37.91;100340.28;4979928;28;1065;-50
2023/11/27 03:36:29;;;;;;;;;;;;;;;17.45;39.42;100355.06;4980750;28;1077;-53
2023/11/27 03:38:55;;;;;;;;;;;;;;;18.35;37.72;100346.34;4992275;28;1024;-51
2023/11/27 03:41:21;;;;;;;;;;;;;;;17.68;38.82;100355.38;4980824;28;1101;-54
2023/11/27 03:43:49;;;;;;;;;;;;;;;17.19;39.67;100354.47;4998823;28;1085;-55
2023/11/27 03:46:15;;;;;;;;;;;;;;;18.30;37.68;100360.19;4984769;28;1144;-52
2023/11/27 03:48:41;;;;;;;;;;;;;;;17.35;39.40;100363.41;4987040;28;1062;-54
2023/11/27 03:51:06;;;;;;;;;;;;;;;18.87;36.66;100370.41;4996063;28;2095;-54
2023/11/27 03:53:32;;;;;;;;;;;;;;;18.10;37.90;100369.50;5001819;28;1235;-54
2023/11/27 03:55:57;;;;;;;;;;;;;;;17.48;39.08;100372.91;4998585;28;1045;-54
2023/11/27 03:58:23;;;;;;;;;;;;;;;18.47;37.12;100365.19;4991610;28;1183;-49
2023/11/27 04:00:49;;;;;;;;;;;;;;;17.62;38.64;100375.78;4980395;28;1051;-54
2023/11/27 04:03:14;;;;;;;;;;;;;;;18.69;36.96;100367.38;4990114;28;1083;-53
2023/11/27 04:05:40;;;;;;;;;;;;;;;15.60;43.09;100366.19;5007495;28;1216;-54
2023/11/27 04:08:07;;;;;;;;;;;;;;;17.50;39.70;100375.34;4991671;28;1064;-52
2023/11/27 04:10:32;;;;;;;;;;;;;;;19.00;36.37;100366.94;4982623;28;1903;-53
2023/11/27 04:12:58;;;;;;;;;;;;;;;17.74;38.70;100373.47;4981737;28;1143;-49
2023/11/27 04:15:23;;;;;;;;;;;;;;;17.92;38.62;100368.34;4989142;28;1135;-52
2023/11/27 04:17:49;;;;;;;;;;;;;;;18.27;37.50;100369.03;4982005;28;1103;-49
2023/11/27 04:20:16;;;;;;;;;;;;;;;17.57;38.94;100371.16;4988611;28;1123;-47
2023/11/27 04:22:45;;;;;;;;;;;;;;;18.98;36.29;100380.19;4982227;28;1040;-51
2023/11/27 04:25:11;;;;;;;;;;;;;;;15.23;43.78;100376.38;4977957;28;1116;-47
2023/11/27 04:27:36;;;;;;;;;;;;;;;17.61;39.13;100391.47;4982012;28;1029;-51
2023/11/27 04:30:02;;;;;;;;;;;;;;;18.20;37.71;100387.84;4984187;28;1914;-56
2023/11/27 04:32:28;;;;;;;;;;;;;;;17.28;39.35;100393.97;4997890;28;1111;-56
2023/11/27 04:34:53;;;;;;;;;;;;;;;17.15;39.71;100397.34;4985230;28;1159;-56
2023/11/27 04:37:19;;;;;;;;;;;;;;;18.03;37.94;100399.31;4990605;28;1008;-56
2023/11/27 04:39:44;;;;;;;;;;;;;;;17.22;39.50;100411.59;4978763;28;1979;-54
2023/11/27 04:42:10;;;;;;;;;;;;;;;17.70;38.65;100423.84;4997601;28;1030;-55
2023/11/27 04:44:36;;;;;;;;;;;;;;;17.86;38.25;100424.50;4983979;28;1000;-56
2023/11/27 04:47:01;;;;;;;;;;;;;;;18.34;37.49;100429.22;4978646;28;1013;-56
2023/11/27 04:49:27;;;;;;;;;;;;;;;19.21;35.64;100435.50;4978672;28;1023;-55
2023/11/27 04:51:52;;;;;;;;;;;;;;;15.52;43.88;100433.34;4990507;28;1906;-57
2023/11/27 04:54:18;;;;;;;;;;;;;;;18.58;37.15;100440.19;4991360;28;1040;-55
2023/11/27 04:56:44;;;;;;;;;;;;;;;17.75;38.14;100432.88;4989245;28;1152;-48
2023/11/27 04:59:10;;;;;;;;;;;;;;;15.94;42.89;100448.69;4989780;28;1388;-57
2023/11/27 05:01:35;;;;;;;;;;;;;;;18.61;37.26;100440.44;4986478;28;982;-54
2023/11/27 05:04:01;;;;;;;;;;;;;;;17.61;38.94;100448.38;4988866;28;1112;-56
2023/11/27 05:06:26;;;;;;;;;;;;;;;17.68;38.73;100451.59;4987699;28;1052;-56
2023/11/27 05:08:52;;;;;;;;;;;;;;;18.28;37.47;100450.47;4992479;28;1723;-53
2023/11/27 05:11:20;;;;;;;;;;;;;;;17.44;39.07;100444.09;4976337;28;1914;-55
2023/11/27 05:13:48;;;;;;;;;;;;;;;17.74;38.58;100436.72;4990338;28;1069;-54
2023/11/27 05:16:14;;;;;;;;;;;;;;;17.98;37.76;100429.63;4990786;28;1067;-54
2023/11/27 05:18:40;;;;;;;;;;;;;;;17.34;39.30;100449.69;4979251;28;982;-55
2023/11/27 05:21:05;;;;;;;;;;;;;;;18.95;36.02;100442.19;4996190;28;1060;-57
2023/11/27 05:23:32;;;;;;;;;;;;;;;17.83;37.98;100450.66;4997223;28;1051;-55
2023/11/27 05:25:57;;;;;;;;;;;;;;;18.36;37.30;100462.78;4983723;28;1027;-55
2023/11/27 05:28:23;;;;;;;;;;;;;;;17.00;39.51;100461.47;4990820;28;1132;-55
2023/11/27 05:30:49;;;;;;;;;;;;;;;16.47;41.19;100469.41;4991203;28;1979;-55
2023/11/27 05:33:16;;;;;;;;;;;;;;;16.87;39.82;100467.56;4990228;28;1053;-55
2023/11/27 05:35:41;;;;;;;;;;;;;;;16.67;39.98;100480.28;4990862;28;1071;-56
2023/11/27 05:38:07;;;;;;;;;;;;;;;16.44;40.44;100487.25;4990404;28;1144;-55
2023/11/27 05:40:35;;;;;;;;;;;;;;;16.25;40.74;100485.09;4985283;28;2639;-54
2023/11/27 05:43:05;;;;;;;;;;;;;;;17.15;39.11;100489.94;4991451;28;1247;-55
2023/11/27 05:45:30;;;;;;;;;;;;;;;16.90;39.36;100495.31;4996684;28;1098;-56
2023/11/27 05:47:56;;;;;;;;;;;;;;;16.39;40.26;100496.28;4996635;28;1012;-56
2023/11/27 05:50:22;;;;;;;;;;;;;;;17.68;37.76;100495.59;4996710;28;1902;-56
2023/11/27 05:52:48;;;;;;;;;;;;;;;16.84;39.40;100501.88;4990124;28;1048;-56
2023/11/27 05:55:14;;;;;;;;;;;;;;;16.53;40.04;100501.22;4971285;28;1475;-55
2023/11/27 05:57:39;;;;;;;;;;;;;;;17.49;38.00;100511.16;4985730;28;1076;-55
2023/11/27 06:00:06;;;;;;;;;;;;;;;16.67;39.59;100512.41;4976346;28;1043;-54
2023/11/27 06:02:37;;;;;;;;;;;;;;;16.96;39.08;100509.84;4986370;28;1068;-55
2023/11/27 06:05:03;;;;;;;;;;;;;;;17.01;38.84;100512.56;4982377;28;1278;-55
2023/11/27 06:07:30;;;;;;;;;;;;;;;16.42;40.15;100531.44;4977097;28;996;-55
2023/11/27 06:09:55;;;;;;;;;;;;;;;17.65;37.67;100526.44;4987508;28;1910;-55
2023/11/27 06:12:23;;;;;;;;;;;;;;;16.85;39.09;100535.69;4996234;28;1000;-56
2023/11/27 06:14:49;;;;;;;;;;;;;;;16.63;39.47;100542.34;4991960;28;1155;-56
2023/11/27 06:17:14;;;;;;;;;;;;;;;17.85;37.41;100552.97;4993384;28;1029;-57
2023/11/27 06:19:40;;;;;;;;;;;;;;;16.83;39.17;100565.34;4990108;28;1219;-51
2023/11/27 06:22:06;;;;;;;;;;;;;;;16.67;39.70;100564.56;4977194;28;1029;-52
2023/11/27 06:24:31;;;;;;;;;;;;;;;17.47;37.90;100573.84;4976962;28;1099;-52
2023/11/27 06:26:57;;;;;;;;;;;;;;;16.70;39.55;100578.56;4989488;28;1040;-53
2023/11/27 06:29:22;;;;;;;;;;;;;;;17.44;37.98;100584.28;4992270;28;1126;-53
2023/11/27 06:31:48;;;;;;;;;;;;;;;17.09;38.55;100583.38;4980476;28;1883;-54
2023/11/27 06:34:14;;;;;;;;;;;;;;;16.49;39.64;100583.28;4977019;28;1168;-54
2023/11/27 06:36:40;;;;;;;;;;;;;;;17.45;38.00;100585.94;4987129;28;1025;-53
2023/11/27 06:39:08;;;;;;;;;;;;;;;17.02;38.85;100585.63;4982545;28;2335;-55
2023/11/27 06:41:34;;;;;;;;;;;;;;;17.30;38.39;100591.53;4987053;28;1519;-54
2023/11/27 06:44:00;;;;;;;;;;;;;;;18.01;36.66;100589.44;4987462;28;1203;-54
2023/11/27 06:46:27;;;;;;;;;;;;;;;16.98;38.78;100584.53;4992491;28;1044;-54
2023/11/27 06:48:53;;;;;;;;;;;;;;;16.52;39.75;100590.97;4990014;28;1195;-59
2023/11/27 06:51:19;;;;;;;;;;;;;;;17.73;37.48;100586.31;4995919;28;1906;-55
2023/11/27 06:53:45;;;;;;;;;;;;;;;17.05;38.72;100590.53;4999377;28;896;-56
2023/11/27 06:56:10;;;;;;;;;;;;;;;16.77;39.26;100601.06;4999871;28;1028;-55
2023/11/27 06:58:36;;;;;;;;;;;;;;;17.75;37.17;100608.88;4999743;28;1028;-54
2023/11/27 07:01:04;;;;;;;;;;;;;;;16.79;39.02;100608.19;4986899;28;1194;-54
2023/11/27 07:03:30;;;;;;;;;;;;;;;16.68;39.30;100619.19;4989803;28;1463;-52
2023/11/27 07:05:55;;;;;;;;;;;;;;;17.58;37.41;100630.41;4985005;28;1081;-54
2023/11/27 07:08:21;;;;;;;;;;;;;;;16.74;39.07;100628.25;4990221;28;1052;-54
2023/11/27 07:10:47;;;;;;;;;;;;;;;17.37;38.01;100619.53;4997482;28;2453;-53
2023/11/27 07:13:12;;;;;;;;;;;;;;;17.30;38.08;100623.69;4991368;28;1077;-55
2023/11/27 07:15:38;;;;;;;;;;;;;;;16.64;39.12;100623.59;4981479;28;1166;-53
2023/11/27 07:18:04;;;;;;;;;;;;;;;17.73;37.18;100630.31;4986024;28;897;-53
2023/11/27 07:20:30;;;;;;;;;;;;;;;17.12;38.27;100633.38;4993134;28;1199;-54
2023/11/27 07:22:55;;;;;;;;;;;;;;;16.76;39.20;100643.34;4988194;28;1038;-53
2023/11/27 07:25:23;;;;;;;;;;;;;;;17.72;37.25;100641.59;4998980;28;1107;-54
2023/11/27 07:27:51;;;;;;;;;;;;;;;16.84;39.02;100643.88;4991104;28;1143;-55
2023/11/27 07:30:17;;;;;;;;;;;;;;;16.50;39.48;100650.78;4992468;28;1902;-55
2023/11/27 07:32:42;;;;;;;;;;;;;;;17.71;36.91;100643.53;4998985;28;1155;-54
2023/11/27 07:35:10;;;;;;;;;;;;;;;16.76;39.06;100643.34;4971591;28;1298;-54
2023/11/27 07:37:36;;;;;;;;;;;;;;;17.14;38.41;100648.50;4969653;28;1295;-56
2023/11/27 07:40:03;;;;;;;;;;;;;;;17.41;37.40;100647.28;4984191;28;1830;-55
2023/11/27 07:42:28;;;;;;;;;;;;;;;16.72;39.11;100661.47;4983376;28;1238;-57
2023/11/27 07:44:54;;;;;;;;;;;;;;;17.67;37.33;100660.88;4982213;28;1285;-56
2023/11/27 07:47:22;;;;;;;;;;;;;;;17.06;38.14;100658.13;4980675;28;1086;-57
2023/11/27 07:49:47;;;;;;;;;;;;;;;16.96;38.63;100655.41;4983719;28;1914;-53
2023/11/27 07:52:13;;;;;;;;;;;;;;;17.68;37.23;100668.84;4971041;28;1110;-56
2023/11/27 07:54:40;;;;;;;;;;;;;;;16.76;38.71;100679.03;4988034;28;1369;-57
2023/11/27 07:57:06;;;;;;;;;;;;;;;16.88;38.65;100683.41;4990629;28;1032;-52
2023/11/27 07:59:31;;;;;;;;;;;;;;;17.57;37.08;100678.25;4992301;28;996;-56
2023/11/27 08:01:58;;;;;;;;;;;;;;;16.74;38.94;100686.72;4990230;28;1030;-57
2023/11/27 08:04:23;;;;;;;;;;;;;;;17.12;38.40;100686.41;4993538;28;1067;-57
2023/11/27 08:06:49;;;;;;;;;;;;;;;17.59;37.26;100687.88;4994235;28;894;-54
2023/11/27 08:09:15;;;;;;;;;;;;;;;16.71;38.75;100695.53;4993697;28;1823;-54
2023/11/27 08:11:41;;;;;;;;;;;;;;;17.92;36.87;100688.28;4989920;28;1980;-57
2023/11/27 08:14:07;;;;;;;;;;;;;;;17.24;37.91;100699.84;4989454;28;1106;-54
2023/11/27 08:16:33;;;;;;;;;;;;;;;16.63;39.24;100704.31;4970682;28;1032;-55
2023/11/27 08:18:59;;;;;;;;;;;;;;;17.93;36.85;100694.59;4994102;28;1111;-53
2023/11/27 08:21:25;;;;;;;;;;;;;;;17.07;38.24;100697.44;4987845;28;1202;-57
2023/11/27 08:23:50;;;;;;;;;;;;;;;16.70;38.98;100693.06;4970472;28;1088;-56
2023/11/27 08:26:16;;;;;;;;;;;;;;;17.76;36.65;100687.50;4995196;28;1075;-54
2023/11/27 08:28:42;;;;;;;;;;;;;;;16.87;38.68;100696.34;4966651;28;1081;-56
2023/11/27 08:31:07;;;;;;;;;;;;;;;17.06;38.40;100690.28;4977644;28;1898;-57
2023/11/27 08:33:33;;;;;;;;;;;;;;;17.36;37.55;100694.84;4981400;28;1251;-58
2023/11/27 08:36:02;;;;;;;;;;;;;;;16.67;39.01;100702.66;4985558;28;1250;-55
2023/11/27 08:38:28;;;;;;;;;;;;;;;17.92;36.63;100690.19;4975072;28;1179;-52
2023/11/27 08:40:53;;;;;;;;;;;;;;;17.04;38.24;100695.22;4973670;28;1818;-56
2023/11/27 08:43:19;;;;;;;;;;;;;;;16.71;38.82;100695.53;4980048;28;1190;-55
2023/11/27 08:45:44;;;;;;;;;;;;;;;17.91;36.40;100696.81;4981086;28;1029;-56
2023/11/27 08:48:12;;;;;;;;;;;;;;;16.88;38.48;100695.25;4974920;28;1093;-56
2023/11/27 08:50:38;;;;;;;;;;;;;;;17.41;37.54;100696.75;4974813;28;1906;-57
2023/11/27 08:53:07;;;;;;;;;;;;;;;17.34;37.56;100694.31;4970765;28;1356;-57
2023/11/27 08:55:33;;;;;;;;;;;;;;;16.68;39.00;100698.00;4979958;28;1167;-56
2023/11/27 08:58:02;;;;;;;;;;;;;;;17.56;37.38;100701.38;4995725;28;1057;-57
2023/11/27 09:00:28;;;;;;;;;;;;;;;17.18;37.84;100692.69;4997365;28;1131;-56
2023/11/27 09:02:54;;;;;;;;;;;;;;;16.62;38.97;100696.34;4988601;28;1073;-57
2023/11/27 09:05:23;;;;;;;;;;;;;;;17.59;37.38;100684.31;4987086;28;1334;-54
2023/11/27 09:07:53;;;;;;;;;;;;;;;17.10;38.07;100694.13;4983631;28;1396;-54
2023/11/27 09:10:19;;;;;;;;;;;;;;;16.70;39.04;100687.56;4991008;28;2527;-55
2023/11/27 09:12:44;;;;;;;;;;;;;;;17.80;36.88;100687.78;4975543;28;1073;-58
2023/11/27 09:15:10;;;;;;;;;;;;;;;16.86;38.71;100674.66;4988852;28;1093;-52
2023/11/27 09:17:37;;;;;;;;;;;;;;;17.31;37.64;100686.63;4977461;28;1228;-56
2023/11/27 09:20:04;;;;;;;;;;;;;;;17.45;37.30;100690.41;4994644;28;931;-58
2023/11/27 09:22:29;;;;;;;;;;;;;;;16.73;38.67;100693.34;4984248;28;1211;-56
2023/11/27 09:24:55;;;;;;;;;;;;;;;17.68;37.09;100677.09;4983571;28;1091;-55
2023/11/27 09:27:20;;;;;;;;;;;;;;;17.07;38.25;100692.75;4985962;28;1077;-56
2023/11/27 09:29:46;;;;;;;;;;;;;;;16.82;38.78;100693.59;4991676;28;1199;-57
2023/11/27 09:32:12;;;;;;;;;;;;;;;17.71;36.90;100695.81;4987844;28;1137;-57
2023/11/27 09:34:37;;;;;;;;;;;;;;;16.81;38.66;100682.88;4990563;28;1383;-57
2023/11/27 09:37:03;;;;;;;;;;;;;;;17.09;38.47;100685.03;4985872;28;1076;-58
2023/11/27 09:39:29;;;;;;;;;;;;;;;17.51;37.41;100682.16;4979134;28;2444;-57
2023/11/27 09:41:56;;;;;;;;;;;;;;;16.72;38.96;100688.94;4979997;28;1213;-57
2023/11/27 09:44:21;;;;;;;;;;;;;;;17.69;37.13;100670.50;4979602;28;1025;-57
2023/11/27 09:46:47;;;;;;;;;;;;;;;16.97;38.31;100680.94;4987538;28;1008;-57
2023/11/27 09:49:16;;;;;;;;;;;;;;;16.99;38.82;100693.31;4992459;28;1063;-57
2023/11/27 09:51:46;;;;;;;;;;;;;;;17.56;37.43;100682.13;4992152;28;1910;-57
2023/11/27 09:54:12;;;;;;;;;;;;;;;16.74;38.96;100685.91;5005455;28;1151;-57
2023/11/27 09:56:37;;;;;;;;;;;;;;;16.99;38.40;100687.81;4988857;28;1148;-57
2023/11/27 09:59:03;;;;;;;;;;;;;;;17.57;37.29;100683.75;4983880;28;1141;-57
2023/11/27 10:01:29;;;;;;;;;;;;;;;16.69;39.12;100673.03;4983287;28;1147;-56
2023/11/27 10:03:58;;;;;;;;;;;;;;;17.59;37.24;100663.13;4978184;28;1061;-56
2023/11/27 10:06:28;;;;;;;;;;;;;;;17.06;38.35;100663.63;4984563;28;1005;-56
2023/11/27 10:09:00;;;;;;;;;;;;;;;16.56;39.21;100666.19;4995096;28;2253;-54
2023/11/27 10:11:26;;;;;;;;;;;;;;;17.94;36.49;100671.47;4985175;28;1992;-57
2023/11/27 10:13:51;;;;;;;;;;;;;;;17.09;38.04;100668.53;4970445;28;1479;-56
2023/11/27 10:16:18;;;;;;;;;;;;;;;16.60;39.14;100661.75;5000984;28;1425;-57
2023/11/27 10:18:44;;;;;;;;;;;;;;;17.85;36.94;100673.16;4988537;28;1149;-56
2023/11/27 10:21:14;;;;;;;;;;;;;;;16.94;38.62;100663.09;4965297;28;1104;-57
2023/11/27 10:23:43;;;;;;;;;;;;;;;16.49;39.58;100670.28;4989145;28;1105;-56
2023/11/27 10:26:09;;;;;;;;;;;;;;;17.77;37.05;100671.84;4987061;28;1100;-57
2023/11/27 10:28:48;;;;;;;;;;;;;;;16.98;38.53;100666.94;4987339;28;1029;-56
2023/11/27 10:31:14;;;;;;;;;;;;;;;16.49;39.45;100665.59;4994306;28;1913;-56
2023/11/27 10:33:40;;;;;;;;;;;;;;;17.79;36.92;100675.97;4991684;28;1131;-58
2023/11/27 10:36:06;;;;;;;;;;;;;;;17.01;38.31;100685.63;4994071;28;1105;-58
2023/11/27 10:38:33;;;;;;;;;;;;;;;16.68;39.07;100673.31;4996048;28;1238;-59
2023/11/27 10:41:00;;;;;;;;;;;;;;;17.61;37.26;100673.84;4991004;28;2617;-53
2023/11/27 10:43:26;;;;;;;;;;;;;;;16.68;39.11;100673.31;4987551;28;1192;-54
2023/11/27 10:45:53;;;;;;;;;;;;;;;17.09;38.24;100668.53;4993411;28;1212;-56
2023/11/27 10:48:18;;;;;;;;;;;;;;;17.39;37.71;100669.56;4986145;28;1088;-57
2023/11/27 10:50:47;;;;;;;;;;;;;;;16.64;39.15;100670.28;4998188;28;1981;-51
2023/11/27 10:53:13;;;;;;;;;;;;;;;17.58;37.58;100671.66;4984098;28;1128;-53
2023/11/27 10:55:38;;;;;;;;;;;;;;;17.08;38.14;100658.69;4991030;28;1069;-53
2023/11/27 10:58:04;;;;;;;;;;;;;;;16.54;39.57;100667.56;4988088;28;1069;-54
2023/11/27 11:00:32;;;;;;;;;;;;;;;17.86;36.95;100666.56;4998177;28;1107;-53
2023/11/27 11:03:00;;;;;;;;;;;;;;;17.15;38.08;100663.84;4992174;28;1120;-50
2023/11/27 11:05:27;;;;;;;;;;;;;;;16.62;39.20;100672.50;4994569;28;979;-50
2023/11/27 11:07:55;;;;;;;;;;;;;;;17.65;37.42;100669.41;4989036;28;946;-53
2023/11/27 11:10:26;;;;;;;;;;;;;;;16.97;38.72;100651.56;4979520;28;2475;-50
2023/11/27 11:12:51;;;;;;;;;;;;;;;16.60;39.31;100661.75;4990109;28;1261;-51
2023/11/27 11:15:20;;;;;;;;;;;;;;;17.77;37.05;100658.09;4980195;28;1064;-52
2023/11/27 11:17:47;;;;;;;;;;;;;;;16.81;38.97;100658.97;4997850;28;1369;-55
2023/11/27 11:20:15;;;;;;;;;;;;;;;17.30;38.27;100662.97;4975423;28;1187;-51
2023/11/27 11:22:52;;;;;;;;;;;;;;;17.31;37.99;100661.88;4991822;28;1073;-51
2023/11/27 11:25:37;;;;;;;;;;;;;;;16.64;39.30;100667.53;4988193;28;1135;-53
2023/11/27 11:28:42;;;;;;;;;;;;;;;17.83;36.89;100658.88;4972753;28;1127;-50
2023/11/27 11:31:08;;;;;;;;;;;;;;;16.82;38.65;100657.09;4981892;28;1975;-52
2023/11/27 11:33:34;;;;;;;;;;;;;;;17.92;36.75;100646.19;4979342;28;1453;-53
2023/11/27 11:36:00;;;;;;;;;;;;;;;17.51;37.61;100651.91;4964645;28;1100;-47
2023/11/27 11:38:25;;;;;;;;;;;;;;;16.93;39.47;100651.31;4976551;28;1100;-51
2023/11/27 11:40:51;;;;;;;;;;;;;;;17.26;38.91;100656.41;4977328;28;2090;-56
2023/11/27 11:43:22;;;;;;;;;;;;;;;17.21;39.38;100651.75;4989562;28;1209;-54
2023/11/27 11:45:48;;;;;;;;;;;;;;;16.73;40.50;100657.63;4971949;28;1295;-54
2023/11/27 11:48:15;;;;;;;;;;;;;;;17.88;38.60;100656.06;4982519;28;1170;-50
2023/11/27 11:50:43;;;;;;;;;;;;;;;18.36;37.72;100661.81;4971709;28;1903;-53
2023/11/27 11:53:21;;;;;;;;;;;;;;;18.41;37.39;100650.75;4987824;28;1279;-53
2023/11/27 11:55:47;;;;;;;;;;;;;;;18.56;36.93;100643.47;4978292;28;1116;-55
2023/11/27 11:58:19;;;;;;;;;;;;;;;18.68;36.92;100654.06;4971470;28;1243;-48
2023/11/27 12:00:44;;;;;;;;;;;;;;;18.76;36.53;100634.16;4972087;28;1357;-50
2023/11/27 12:03:20;;;;;;;;;;;;;;;18.96;36.23;100646.94;4971501;28;1487;-53
2023/11/27 12:05:52;;;;;;;;;;;;;;;19.15;36.21;100639.53;4979161;28;1219;-59
2023/11/27 12:08:24;;;;;;;;;;;;;;;19.31;36.13;100642.09;4976932;28;1186;-54
2023/11/27 12:10:53;;;;;;;;;;;;;;;19.54;36.29;100643.16;4978476;28;2011;-50
2023/11/27 12:13:23;;;;;;;;;;;;;;;19.70;36.23;100637.44;4978552;28;1329;-55
2023/11/27 12:15:52;;;;;;;;;;;;;;;19.83;36.34;100643.06;4980172;28;1115;-50
2023/11/27 12:18:19;;;;;;;;;;;;;;;19.88;36.20;100649.63;4974099;28;1318;-56
2023/11/27 12:20:47;;;;;;;;;;;;;;;19.95;36.38;100645.38;4980322;28;1054;-50
2023/11/27 12:23:12;;;;;;;;;;;;;;;20.02;36.32;100661.56;4981341;28;1097;-51
2023/11/27 12:25:41;;;;;;;;;;;;;;;20.15;36.36;100652.50;4987831;28;1376;-52
2023/11/27 12:28:07;;;;;;;;;;;;;;;20.13;36.33;100662.19;4981011;28;1206;-52
2023/11/27 12:30:32;;;;;;;;;;;;;;;17.96;40.77;100669.25;4981340;28;1985;-51
2023/11/27 12:32:58;;;;;;;;;;;;;;;19.12;38.37;100651.13;5002797;28;1085;-50
2023/11/27 12:35:26;;;;;;;;;;;;;;;19.54;37.38;100656.16;4982376;28;1099;-49
2023/11/27 12:37:53;;;;;;;;;;;;;;;19.78;36.93;100650.56;4981572;28;1369;-50
2023/11/27 12:40:19;;;;;;;;;;;;;;;19.93;36.67;100644.84;4977628;28;1819;-54
2023/11/27 12:42:48;;;;;;;;;;;;;;;20.07;36.69;100642.13;4977028;28;1243;-53